sensor_id;sensor_type;location;lat;lon;timestamp;temperature;humidity
19728;DHT22;10015;52.530;13.390;2024-01-10T00:01:10;-4.50;99.90
19728;DHT22;10015;52.530;13.390;2024-01-10T00:03:36;-4.50;99.90
19728;DHT22;10015;52.530;13.390;2024-01-10T00:06:02;-4.50;99.90
19728;DHT22;10015;52.530;13.390;2024-01-10T00:08:31;-4.50;99.90
19728;DHT22;10015;52.530;13.390;2024-01-10T00:10:57;-4.50;99.90
19728;DHT22;10015;52.530;13.390;2024-01-10T00:13:23;-4.70;99.90
19728;DHT22;10015;52.530;13.390;2024-01-10T00:15:49;-4.80;99.90
19728;DHT22;10015;52.530;13.390;2024-01-10T00:18:15;-4.80;99.90
19728;DHT22;10015;52.530;13.390;2024-01-10T00:20:41;-4.90;99.90
19728;DHT22;10015;52.530;13.390;2024-01-10T00:23:06;-5.00;99.90
19728;DHT22;10015;52.530;13.390;2024-01-10T00:25:33;-4.80;99.90
19728;DHT22;10015;52.530;13.390;2024-01-10T00:27:59;-4.60;99.90
19728;DHT22;10015;52.530;13.390;2024-01-10T00:30:25;-4.50;99.90
19728;DHT22;10015;52.530;13.390;2024-01-10T00:32:51;-4.50;99.90
19728;DHT22;10015;52.530;13.390;2024-01-10T00:35:17;-4.40;99.90
19728;DHT22;10015;52.530;13.390;2024-01-10T00:37:43;-4.60;99.90
19728;DHT22;10015;52.530;13.390;2024-01-10T00:40:09;-4.80;99.90
19728;DHT22;10015;52.530;13.390;2024-01-10T00:42:35;-5.00;99.90
19728;DHT22;10015;52.530;13.390;2024-01-10T00:45:01;-4.90;99.90
19728;DHT22;10015;52.530;13.390;2024-01-10T00:47:27;-4.70;99.90
19728;DHT22;10015;52.530;13.390;2024-01-10T00:49:53;-4.60;99.90
19728;DHT22;10015;52.530;13.390;2024-01-10T00:52:19;-4.50;99.90
19728;DHT22;10015;52.530;13.390;2024-01-10T00:54:45;-4.60;99.90
19728;DHT22;10015;52.530;13.390;2024-01-10T00:57:11;-4.80;99.90
19728;DHT22;10015;52.530;13.390;2024-01-10T00:59:37;-5.00;99.90
19728;DHT22;10015;52.530;13.390;2024-01-10T01:02:03;-4.90;99.90
19728;DHT22;10015;52.530;13.390;2024-01-10T01:04:29;-4.80;99.90
19728;DHT22;10015;52.530;13.390;2024-01-10T01:06:55;-4.70;99.90
19728;DHT22;10015;52.530;13.390;2024-01-10T01:09:21;-4.70;99.90
19728;DHT22;10015;52.530;13.390;2024-01-10T01:11:47;-4.90;99.90
19728;DHT22;10015;52.530;13.390;2024-01-10T01:14:13;-5.00;99.90
19728;DHT22;10015;52.530;13.390;2024-01-10T01:16:39;-5.20;99.90
19728;DHT22;10015;52.530;13.390;2024-01-10T01:19:05;-5.10;99.90
19728;DHT22;10015;52.530;13.390;2024-01-10T01:21:31;-5.20;99.90
19728;DHT22;10015;52.530;13.390;2024-01-10T01:23:57;-5.10;99.90
19728;DHT22;10015;52.530;13.390;2024-01-10T01:26:23;-4.80;99.90
19728;DHT22;10015;52.530;13.390;2024-01-10T01:28:49;-4.80;99.90
19728;DHT22;10015;52.530;13.390;2024-01-10T01:31:14;-4.80;99.90
19728;DHT22;10015;52.530;13.390;2024-01-10T01:33:40;-4.70;99.90
19728;DHT22;10015;52.530;13.390;2024-01-10T01:36:06;-4.60;99.90
19728;DHT22;10015;52.530;13.390;2024-01-10T01:38:32;-4.60;99.90
19728;DHT22;10015;52.530;13.390;2024-01-10T01:40:58;-4.50;99.90
19728;DHT22;10015;52.530;13.390;2024-01-10T01:43:25;-4.40;99.90
19728;DHT22;10015;52.530;13.390;2024-01-10T01:45:55;-4.50;99.90
19728;DHT22;10015;52.530;13.390;2024-01-10T01:48:23;-4.60;99.90
19728;DHT22;10015;52.530;13.390;2024-01-10T01:50:59;-4.50;99.90
19728;DHT22;10015;52.530;13.390;2024-01-10T01:53:25;-4.50;99.90
19728;DHT22;10015;52.530;13.390;2024-01-10T01:55:52;-4.30;99.90
19728;DHT22;10015;52.530;13.390;2024-01-10T01:58:19;-4.30;99.90
19728;DHT22;10015;52.530;13.390;2024-01-10T02:00:46;-4.30;99.90
19728;DHT22;10015;52.530;13.390;2024-01-10T02:03:12;-4.20;99.90
19728;DHT22;10015;52.530;13.390;2024-01-10T02:05:39;-4.20;99.90
19728;DHT22;10015;52.530;13.390;2024-01-10T02:08:05;-4.30;99.90
19728;DHT22;10015;52.530;13.390;2024-01-10T02:10:31;-4.30;99.90
19728;DHT22;10015;52.530;13.390;2024-01-10T02:12:57;-4.30;99.90
19728;DHT22;10015;52.530;13.390;2024-01-10T02:15:23;-4.40;99.90
19728;DHT22;10015;52.530;13.390;2024-01-10T02:17:49;-4.50;99.90
19728;DHT22;10015;52.530;13.390;2024-01-10T02:20:16;-4.40;99.90
19728;DHT22;10015;52.530;13.390;2024-01-10T02:22:46;-4.30;99.90
19728;DHT22;10015;52.530;13.390;2024-01-10T02:25:13;-4.20;99.90
19728;DHT22;10015;52.530;13.390;2024-01-10T02:27:40;-4.10;99.90
19728;DHT22;10015;52.530;13.390;2024-01-10T02:30:07;-4.10;99.90
19728;DHT22;10015;52.530;13.390;2024-01-10T02:32:35;-4.10;99.90
19728;DHT22;10015;52.530;13.390;2024-01-10T02:35:02;-4.10;99.90
19728;DHT22;10015;52.530;13.390;2024-01-10T02:37:28;-4.10;99.90
19728;DHT22;10015;52.530;13.390;2024-01-10T02:39:54;-4.10;99.90
19728;DHT22;10015;52.530;13.390;2024-01-10T02:42:20;-4.10;99.90
19728;DHT22;10015;52.530;13.390;2024-01-10T02:44:45;-4.00;99.90
19728;DHT22;10015;52.530;13.390;2024-01-10T02:47:12;-4.10;99.90
19728;DHT22;10015;52.530;13.390;2024-01-10T02:49:38;-4.20;99.90
19728;DHT22;10015;52.530;13.390;2024-01-10T02:52:05;-4.20;99.90
19728;DHT22;10015;52.530;13.390;2024-01-10T02:54:31;-4.20;99.90
19728;DHT22;10015;52.530;13.390;2024-01-10T02:56:57;-4.10;99.90
19728;DHT22;10015;52.530;13.390;2024-01-10T02:59:22;-4.00;99.90
19728;DHT22;10015;52.530;13.390;2024-01-10T03:01:48;-4.00;99.90
19728;DHT22;10015;52.530;13.390;2024-01-10T03:04:14;-4.00;99.90
19728;DHT22;10015;52.530;13.390;2024-01-10T03:06:40;-4.00;99.90
19728;DHT22;10015;52.530;13.390;2024-01-10T03:09:06;-4.00;99.90
19728;DHT22;10015;52.530;13.390;2024-01-10T03:11:32;-4.10;99.90
19728;DHT22;10015;52.530;13.390;2024-01-10T03:14:07;-4.10;99.90
19728;DHT22;10015;52.530;13.390;2024-01-10T03:16:34;-4.10;99.90
19728;DHT22;10015;52.530;13.390;2024-01-10T03:19:00;-4.10;99.90
19728;DHT22;10015;52.530;13.390;2024-01-10T03:21:26;-4.10;99.90
19728;DHT22;10015;52.530;13.390;2024-01-10T03:23:56;-4.20;99.90
19728;DHT22;10015;52.530;13.390;2024-01-10T03:26:23;-4.10;99.90
19728;DHT22;10015;52.530;13.390;2024-01-10T03:28:49;-4.20;99.90
19728;DHT22;10015;52.530;13.390;2024-01-10T03:31:15;-4.20;99.90
19728;DHT22;10015;52.530;13.390;2024-01-10T03:33:41;-4.30;99.90
19728;DHT22;10015;52.530;13.390;2024-01-10T03:36:12;-4.30;99.90
19728;DHT22;10015;52.530;13.390;2024-01-10T03:38:39;-4.30;99.90
19728;DHT22;10015;52.530;13.390;2024-01-10T03:41:07;-4.20;99.90
19728;DHT22;10015;52.530;13.390;2024-01-10T03:43:33;-4.20;99.90
19728;DHT22;10015;52.530;13.390;2024-01-10T03:45:58;-4.20;99.90
19728;DHT22;10015;52.530;13.390;2024-01-10T03:48:24;-4.20;99.90
19728;DHT22;10015;52.530;13.390;2024-01-10T03:50:50;-4.20;99.90
19728;DHT22;10015;52.530;13.390;2024-01-10T03:53:16;-4.20;99.90
19728;DHT22;10015;52.530;13.390;2024-01-10T03:55:42;-4.20;99.90
19728;DHT22;10015;52.530;13.390;2024-01-10T03:58:08;-4.20;99.90
19728;DHT22;10015;52.530;13.390;2024-01-10T04:00:33;-4.10;99.90
19728;DHT22;10015;52.530;13.390;2024-01-10T04:02:59;-4.10;99.90
19728;DHT22;10015;52.530;13.390;2024-01-10T04:05:25;-4.10;99.90
19728;DHT22;10015;52.530;13.390;2024-01-10T04:07:51;-4.10;99.90
19728;DHT22;10015;52.530;13.390;2024-01-10T04:10:18;-4.10;99.90
19728;DHT22;10015;52.530;13.390;2024-01-10T04:12:44;-4.10;99.90
19728;DHT22;10015;52.530;13.390;2024-01-10T04:15:11;-4.10;99.90
19728;DHT22;10015;52.530;13.390;2024-01-10T04:17:37;-4.10;99.90
19728;DHT22;10015;52.530;13.390;2024-01-10T04:20:04;-4.10;99.90
19728;DHT22;10015;52.530;13.390;2024-01-10T04:22:30;-4.20;99.90
19728;DHT22;10015;52.530;13.390;2024-01-10T04:25:01;-4.20;99.90
19728;DHT22;10015;52.530;13.390;2024-01-10T04:27:27;-4.30;99.90
19728;DHT22;10015;52.530;13.390;2024-01-10T04:29:53;-4.30;99.90
19728;DHT22;10015;52.530;13.390;2024-01-10T04:32:19;-4.50;99.90
19728;DHT22;10015;52.530;13.390;2024-01-10T04:34:45;-4.60;99.90
19728;DHT22;10015;52.530;13.390;2024-01-10T04:37:11;-4.50;99.90
19728;DHT22;10015;52.530;13.390;2024-01-10T04:39:37;-4.80;99.90
19728;DHT22;10015;52.530;13.390;2024-01-10T04:42:03;-4.80;99.90
19728;DHT22;10015;52.530;13.390;2024-01-10T04:44:29;-4.80;99.90
19728;DHT22;10015;52.530;13.390;2024-01-10T04:46:55;-4.70;99.90
19728;DHT22;10015;52.530;13.390;2024-01-10T04:49:21;-4.70;99.90
19728;DHT22;10015;52.530;13.390;2024-01-10T04:51:47;-4.70;99.90
19728;DHT22;10015;52.530;13.390;2024-01-10T04:54:13;-4.60;99.90
19728;DHT22;10015;52.530;13.390;2024-01-10T04:56:39;-4.60;99.90
19728;DHT22;10015;52.530;13.390;2024-01-10T04:59:05;-4.70;99.90
19728;DHT22;10015;52.530;13.390;2024-01-10T05:01:32;-4.60;99.90
19728;DHT22;10015;52.530;13.390;2024-01-10T05:03:58;-4.60;99.90
19728;DHT22;10015;52.530;13.390;2024-01-10T05:06:24;-4.50;99.90
19728;DHT22;10015;52.530;13.390;2024-01-10T05:08:50;-4.40;99.90
19728;DHT22;10015;52.530;13.390;2024-01-10T05:11:16;-4.30;99.90
19728;DHT22;10015;52.530;13.390;2024-01-10T05:13:42;-4.40;99.90
19728;DHT22;10015;52.530;13.390;2024-01-10T05:16:08;-4.40;99.90
19728;DHT22;10015;52.530;13.390;2024-01-10T05:18:34;-4.30;99.90
19728;DHT22;10015;52.530;13.390;2024-01-10T05:21:00;-4.30;99.90
19728;DHT22;10015;52.530;13.390;2024-01-10T05:23:26;-4.40;99.90
19728;DHT22;10015;52.530;13.390;2024-01-10T05:25:53;-4.50;99.90
19728;DHT22;10015;52.530;13.390;2024-01-10T05:28:19;-4.70;99.90
19728;DHT22;10015;52.530;13.390;2024-01-10T05:30:45;-4.90;99.90
19728;DHT22;10015;52.530;13.390;2024-01-10T05:33:11;-4.80;99.90
19728;DHT22;10015;52.530;13.390;2024-01-10T05:35:40;-4.70;99.90
19728;DHT22;10015;52.530;13.390;2024-01-10T05:38:07;-4.50;99.90
19728;DHT22;10015;52.530;13.390;2024-01-10T05:40:33;-4.50;99.90
19728;DHT22;10015;52.530;13.390;2024-01-10T05:42:59;-4.50;99.90
19728;DHT22;10015;52.530;13.390;2024-01-10T05:45:25;-4.60;99.90
19728;DHT22;10015;52.530;13.390;2024-01-10T05:47:52;-4.70;99.90
19728;DHT22;10015;52.530;13.390;2024-01-10T05:50:18;-5.00;99.90
19728;DHT22;10015;52.530;13.390;2024-01-10T05:52:46;-5.10;99.90
19728;DHT22;10015;52.530;13.390;2024-01-10T05:55:12;-5.20;99.90
19728;DHT22;10015;52.530;13.390;2024-01-10T05:57:38;-5.10;99.90
19728;DHT22;10015;52.530;13.390;2024-01-10T06:00:05;-5.20;99.90
19728;DHT22;10015;52.530;13.390;2024-01-10T06:02:36;-5.30;99.90
19728;DHT22;10015;52.530;13.390;2024-01-10T06:05:10;-5.30;99.90
19728;DHT22;10015;52.530;13.390;2024-01-10T06:07:37;-5.20;99.90
19728;DHT22;10015;52.530;13.390;2024-01-10T06:10:04;-5.30;99.90
19728;DHT22;10015;52.530;13.390;2024-01-10T06:12:30;-5.40;99.90
19728;DHT22;10015;52.530;13.390;2024-01-10T06:14:56;-5.40;99.90
19728;DHT22;10015;52.530;13.390;2024-01-10T06:17:24;-5.30;99.90
19728;DHT22;10015;52.530;13.390;2024-01-10T06:19:50;-5.20;99.90
19728;DHT22;10015;52.530;13.390;2024-01-10T06:22:16;-5.00;99.90
19728;DHT22;10015;52.530;13.390;2024-01-10T06:24:44;-4.90;99.90
19728;DHT22;10015;52.530;13.390;2024-01-10T06:27:10;-4.70;99.90
19728;DHT22;10015;52.530;13.390;2024-01-10T06:29:36;-4.60;99.90
19728;DHT22;10015;52.530;13.390;2024-01-10T06:32:06;-4.50;99.90
19728;DHT22;10015;52.530;13.390;2024-01-10T06:34:32;-4.60;99.90
19728;DHT22;10015;52.530;13.390;2024-01-10T06:37:00;-4.70;99.90
19728;DHT22;10015;52.530;13.390;2024-01-10T06:39:26;-4.70;99.90
19728;DHT22;10015;52.530;13.390;2024-01-10T06:41:53;-4.70;99.90
19728;DHT22;10015;52.530;13.390;2024-01-10T06:44:19;-4.60;99.90
19728;DHT22;10015;52.530;13.390;2024-01-10T06:46:45;-4.70;99.90
19728;DHT22;10015;52.530;13.390;2024-01-10T06:49:11;-4.60;99.90
19728;DHT22;10015;52.530;13.390;2024-01-10T06:51:38;-4.70;99.90
19728;DHT22;10015;52.530;13.390;2024-01-10T06:54:04;-4.70;99.90
19728;DHT22;10015;52.530;13.390;2024-01-10T06:56:30;-4.60;99.90
19728;DHT22;10015;52.530;13.390;2024-01-10T06:58:57;-4.60;99.90
19728;DHT22;10015;52.530;13.390;2024-01-10T07:01:23;-4.50;99.90
19728;DHT22;10015;52.530;13.390;2024-01-10T07:03:49;-4.50;99.90
19728;DHT22;10015;52.530;13.390;2024-01-10T07:06:15;-4.50;99.90
19728;DHT22;10015;52.530;13.390;2024-01-10T07:08:42;-4.50;99.90
19728;DHT22;10015;52.530;13.390;2024-01-10T07:11:08;-4.50;99.90
19728;DHT22;10015;52.530;13.390;2024-01-10T07:13:36;-4.50;99.90
19728;DHT22;10015;52.530;13.390;2024-01-10T07:16:02;-4.60;99.90
19728;DHT22;10015;52.530;13.390;2024-01-10T07:18:31;-4.70;99.90
19728;DHT22;10015;52.530;13.390;2024-01-10T07:20:56;-4.70;99.90
19728;DHT22;10015;52.530;13.390;2024-01-10T07:23:22;-4.80;99.90
19728;DHT22;10015;52.530;13.390;2024-01-10T07:25:49;-4.70;99.90
19728;DHT22;10015;52.530;13.390;2024-01-10T07:28:16;-4.70;99.90
19728;DHT22;10015;52.530;13.390;2024-01-10T07:30:44;-4.80;99.90
19728;DHT22;10015;52.530;13.390;2024-01-10T07:33:12;-5.00;99.90
19728;DHT22;10015;52.530;13.390;2024-01-10T07:35:38;-5.10;99.90
19728;DHT22;10015;52.530;13.390;2024-01-10T07:38:05;-5.10;99.90
19728;DHT22;10015;52.530;13.390;2024-01-10T07:40:34;-5.10;99.90
19728;DHT22;10015;52.530;13.390;2024-01-10T07:43:00;-5.10;99.90
19728;DHT22;10015;52.530;13.390;2024-01-10T07:45:26;-5.10;99.90
19728;DHT22;10015;52.530;13.390;2024-01-10T07:47:52;-4.90;99.90
19728;DHT22;10015;52.530;13.390;2024-01-10T07:50:19;-4.60;99.90
19728;DHT22;10015;52.530;13.390;2024-01-10T07:52:45;-4.50;99.90
19728;DHT22;10015;52.530;13.390;2024-01-10T07:55:12;-4.40;99.90
19728;DHT22;10015;52.530;13.390;2024-01-10T07:57:38;-4.50;99.90
19728;DHT22;10015;52.530;13.390;2024-01-10T08:00:07;-4.60;99.90
19728;DHT22;10015;52.530;13.390;2024-01-10T08:02:53;-4.50;99.90
19728;DHT22;10015;52.530;13.390;2024-01-10T08:05:19;-4.40;99.90
19728;DHT22;10015;52.530;13.390;2024-01-10T08:07:46;-4.30;99.90
19728;DHT22;10015;52.530;13.390;2024-01-10T08:10:13;-4.40;99.90
19728;DHT22;10015;52.530;13.390;2024-01-10T08:12:41;-4.50;99.90
19728;DHT22;10015;52.530;13.390;2024-01-10T08:15:10;-4.50;99.90
19728;DHT22;10015;52.530;13.390;2024-01-10T08:17:36;-4.30;99.90
19728;DHT22;10015;52.530;13.390;2024-01-10T08:20:06;-4.20;99.90
19728;DHT22;10015;52.530;13.390;2024-01-10T08:22:33;-4.10;99.90
19728;DHT22;10015;52.530;13.390;2024-01-10T08:24:59;-4.10;99.90
19728;DHT22;10015;52.530;13.390;2024-01-10T08:27:25;-4.30;99.90
19728;DHT22;10015;52.530;13.390;2024-01-10T08:29:51;-4.20;99.90
19728;DHT22;10015;52.530;13.390;2024-01-10T08:32:17;-4.10;99.90
19728;DHT22;10015;52.530;13.390;2024-01-10T08:34:44;-3.90;99.90
19728;DHT22;10015;52.530;13.390;2024-01-10T08:37:10;-3.90;99.90
19728;DHT22;10015;52.530;13.390;2024-01-10T08:39:36;-3.80;99.90
19728;DHT22;10015;52.530;13.390;2024-01-10T08:42:02;-3.60;99.90
19728;DHT22;10015;52.530;13.390;2024-01-10T08:44:28;-3.50;99.90
19728;DHT22;10015;52.530;13.390;2024-01-10T08:46:54;-3.50;99.90
19728;DHT22;10015;52.530;13.390;2024-01-10T08:49:20;-3.40;99.90
19728;DHT22;10015;52.530;13.390;2024-01-10T08:51:47;-3.50;99.90
19728;DHT22;10015;52.530;13.390;2024-01-10T08:54:13;-3.50;99.90
19728;DHT22;10015;52.530;13.390;2024-01-10T08:56:43;-3.50;99.90
19728;DHT22;10015;52.530;13.390;2024-01-10T08:59:11;-3.50;99.90
19728;DHT22;10015;52.530;13.390;2024-01-10T09:01:37;-3.50;99.90
19728;DHT22;10015;52.530;13.390;2024-01-10T09:04:06;-3.40;99.90
19728;DHT22;10015;52.530;13.390;2024-01-10T09:06:33;-3.60;99.90
19728;DHT22;10015;52.530;13.390;2024-01-10T09:08:59;-3.40;99.90
19728;DHT22;10015;52.530;13.390;2024-01-10T09:11:25;-3.30;99.90
19728;DHT22;10015;52.530;13.390;2024-01-10T09:13:51;-3.30;99.90
19728;DHT22;10015;52.530;13.390;2024-01-10T09:16:17;-3.50;99.90
19728;DHT22;10015;52.530;13.390;2024-01-10T09:18:46;-3.60;99.90
19728;DHT22;10015;52.530;13.390;2024-01-10T09:21:12;-3.50;99.90
19728;DHT22;10015;52.530;13.390;2024-01-10T09:23:38;-3.40;99.90
19728;DHT22;10015;52.530;13.390;2024-01-10T09:26:04;-3.30;99.90
19728;DHT22;10015;52.530;13.390;2024-01-10T09:28:30;-3.20;99.90
19728;DHT22;10015;52.530;13.390;2024-01-10T09:30:55;-3.20;99.90
19728;DHT22;10015;52.530;13.390;2024-01-10T09:33:21;-3.10;99.90
19728;DHT22;10015;52.530;13.390;2024-01-10T09:35:48;-3.00;99.90
19728;DHT22;10015;52.530;13.390;2024-01-10T09:38:15;-2.90;99.90
19728;DHT22;10015;52.530;13.390;2024-01-10T09:40:40;-2.90;99.90
19728;DHT22;10015;52.530;13.390;2024-01-10T09:43:07;-3.00;99.90
19728;DHT22;10015;52.530;13.390;2024-01-10T09:45:37;-2.80;99.90
19728;DHT22;10015;52.530;13.390;2024-01-10T09:48:13;-2.70;99.90
19728;DHT22;10015;52.530;13.390;2024-01-10T09:50:40;-2.80;99.90
19728;DHT22;10015;52.530;13.390;2024-01-10T09:53:07;-2.70;99.90
19728;DHT22;10015;52.530;13.390;2024-01-10T09:55:37;-2.80;99.90
19728;DHT22;10015;52.530;13.390;2024-01-10T09:58:06;-2.70;99.90
19728;DHT22;10015;52.530;13.390;2024-01-10T10:00:35;-2.70;99.90
19728;DHT22;10015;52.530;13.390;2024-01-10T10:03:03;-2.60;99.90
19728;DHT22;10015;52.530;13.390;2024-01-10T10:05:30;-2.50;99.90
19728;DHT22;10015;52.530;13.390;2024-01-10T10:07:57;-2.40;99.90
19728;DHT22;10015;52.530;13.390;2024-01-10T10:10:24;-2.40;99.90
19728;DHT22;10015;52.530;13.390;2024-01-10T10:12:53;-2.40;99.90
19728;DHT22;10015;52.530;13.390;2024-01-10T10:15:24;-2.40;99.90
19728;DHT22;10015;52.530;13.390;2024-01-10T10:17:53;-2.50;99.90
19728;DHT22;10015;52.530;13.390;2024-01-10T10:20:27;-2.30;99.90
19728;DHT22;10015;52.530;13.390;2024-01-10T10:23:07;-2.20;99.90
19728;DHT22;10015;52.530;13.390;2024-01-10T10:25:37;-2.30;99.90
19728;DHT22;10015;52.530;13.390;2024-01-10T10:28:07;-2.20;99.90
19728;DHT22;10015;52.530;13.390;2024-01-10T10:30:34;-2.10;99.90
19728;DHT22;10015;52.530;13.390;2024-01-10T10:33:03;-2.00;99.90
19728;DHT22;10015;52.530;13.390;2024-01-10T10:35:29;-2.10;99.90
19728;DHT22;10015;52.530;13.390;2024-01-10T10:37:55;-2.10;99.90
19728;DHT22;10015;52.530;13.390;2024-01-10T10:40:24;-2.10;99.90
19728;DHT22;10015;52.530;13.390;2024-01-10T10:42:55;-2.30;99.90
19728;DHT22;10015;52.530;13.390;2024-01-10T10:45:22;-2.40;99.90
19728;DHT22;10015;52.530;13.390;2024-01-10T10:48:01;-2.30;99.90
19728;DHT22;10015;52.530;13.390;2024-01-10T10:50:34;-2.20;99.90
19728;DHT22;10015;52.530;13.390;2024-01-10T10:53:03;-2.30;99.90
19728;DHT22;10015;52.530;13.390;2024-01-10T10:55:29;-2.40;99.90
19728;DHT22;10015;52.530;13.390;2024-01-10T10:57:57;-2.50;99.90
19728;DHT22;10015;52.530;13.390;2024-01-10T11:00:24;-2.40;99.90
19728;DHT22;10015;52.530;13.390;2024-01-10T11:02:54;-2.20;99.90
19728;DHT22;10015;52.530;13.390;2024-01-10T11:05:22;-2.20;99.90
19728;DHT22;10015;52.530;13.390;2024-01-10T11:07:48;-2.10;99.90
19728;DHT22;10015;52.530;13.390;2024-01-10T11:10:23;-2.10;99.90
19728;DHT22;10015;52.530;13.390;2024-01-10T11:22:00;-1.40;99.90
19728;DHT22;10015;52.530;13.390;2024-01-10T11:24:29;-1.40;99.90
19728;DHT22;10015;52.530;13.390;2024-01-10T11:27:15;-1.40;99.90
19728;DHT22;10015;52.530;13.390;2024-01-10T11:29:42;-1.60;99.90
19728;DHT22;10015;52.530;13.390;2024-01-10T11:32:15;-1.40;99.90
19728;DHT22;10015;52.530;13.390;2024-01-10T11:37:20;-1.10;99.90
19728;DHT22;10015;52.530;13.390;2024-01-10T11:39:46;-1.10;99.90
19728;DHT22;10015;52.530;13.390;2024-01-10T11:42:21;-1.10;99.90
19728;DHT22;10015;52.530;13.390;2024-01-10T11:44:51;-1.10;99.90
19728;DHT22;10015;52.530;13.390;2024-01-10T11:47:20;-1.10;99.90
19728;DHT22;10015;52.530;13.390;2024-01-10T11:49:58;-1.00;99.90
19728;DHT22;10015;52.530;13.390;2024-01-10T11:52:31;-1.00;99.90
19728;DHT22;10015;52.530;13.390;2024-01-10T11:54:57;-0.90;99.90
19728;DHT22;10015;52.530;13.390;2024-01-10T11:57:26;-0.90;99.90
19728;DHT22;10015;52.530;13.390;2024-01-10T11:59:56;-0.90;99.90
19728;DHT22;10015;52.530;13.390;2024-01-10T12:02:25;-0.80;99.90
19728;DHT22;10015;52.530;13.390;2024-01-10T12:04:52;-0.80;99.90
19728;DHT22;10015;52.530;13.390;2024-01-10T12:07:19;-0.60;99.90
19728;DHT22;10015;52.530;13.390;2024-01-10T12:09:45;-0.60;99.90
19728;DHT22;10015;52.530;13.390;2024-01-10T12:12:15;-0.60;99.90
19728;DHT22;10015;52.530;13.390;2024-01-10T12:14:41;-0.50;99.90
19728;DHT22;10015;52.530;13.390;2024-01-10T12:17:09;-0.50;99.90
19728;DHT22;10015;52.530;13.390;2024-01-10T12:19:37;-0.60;99.90
19728;DHT22;10015;52.530;13.390;2024-01-10T12:22:04;-0.60;99.90
19728;DHT22;10015;52.530;13.390;2024-01-10T12:24:31;-0.50;99.90
19728;DHT22;10015;52.530;13.390;2024-01-10T12:26:58;-0.60;99.90
19728;DHT22;10015;52.530;13.390;2024-01-10T12:29:24;-0.50;99.90
19728;DHT22;10015;52.530;13.390;2024-01-10T12:31:52;-0.60;99.90
19728;DHT22;10015;52.530;13.390;2024-01-10T12:34:20;-0.50;99.90
19728;DHT22;10015;52.530;13.390;2024-01-10T12:36:47;-0.50;99.90
19728;DHT22;10015;52.530;13.390;2024-01-10T12:39:15;-0.60;99.90
19728;DHT22;10015;52.530;13.390;2024-01-10T12:41:41;-0.60;99.90
19728;DHT22;10015;52.530;13.390;2024-01-10T12:44:10;-0.50;99.90
19728;DHT22;10015;52.530;13.390;2024-01-10T12:46:52;-0.50;99.90
19728;DHT22;10015;52.530;13.390;2024-01-10T12:49:53;-0.50;99.90
19728;DHT22;10015;52.530;13.390;2024-01-10T12:52:19;-0.50;99.90
19728;DHT22;10015;52.530;13.390;2024-01-10T12:54:47;-0.50;99.90
19728;DHT22;10015;52.530;13.390;2024-01-10T12:57:14;-0.40;99.90
19728;DHT22;10015;52.530;13.390;2024-01-10T12:59:40;-0.30;99.90
19728;DHT22;10015;52.530;13.390;2024-01-10T13:02:05;-0.30;99.90
19728;DHT22;10015;52.530;13.390;2024-01-10T13:04:32;-0.30;99.90
19728;DHT22;10015;52.530;13.390;2024-01-10T13:06:58;-0.30;99.90
19728;DHT22;10015;52.530;13.390;2024-01-10T13:09:25;-0.30;99.90
19728;DHT22;10015;52.530;13.390;2024-01-10T13:11:51;-0.30;99.90
19728;DHT22;10015;52.530;13.390;2024-01-10T13:14:16;-0.20;99.90
19728;DHT22;10015;52.530;13.390;2024-01-10T13:16:42;-0.30;99.90
19728;DHT22;10015;52.530;13.390;2024-01-10T13:19:08;-0.20;99.90
19728;DHT22;10015;52.530;13.390;2024-01-10T13:21:34;-0.30;99.90
19728;DHT22;10015;52.530;13.390;2024-01-10T13:24:01;-0.20;99.90
19728;DHT22;10015;52.530;13.390;2024-01-10T13:26:28;-0.30;99.90
19728;DHT22;10015;52.530;13.390;2024-01-10T13:28:54;-0.30;99.90
19728;DHT22;10015;52.530;13.390;2024-01-10T13:31:20;-0.20;99.90
19728;DHT22;10015;52.530;13.390;2024-01-10T13:33:46;-0.30;99.90
19728;DHT22;10015;52.530;13.390;2024-01-10T13:36:12;-0.20;99.90
19728;DHT22;10015;52.530;13.390;2024-01-10T13:38:37;-0.30;99.90
19728;DHT22;10015;52.530;13.390;2024-01-10T13:41:03;-0.30;99.90
19728;DHT22;10015;52.530;13.390;2024-01-10T13:43:31;-0.30;99.90
19728;DHT22;10015;52.530;13.390;2024-01-10T13:45:56;-0.40;99.90
19728;DHT22;10015;52.530;13.390;2024-01-10T13:48:23;-0.40;99.90
19728;DHT22;10015;52.530;13.390;2024-01-10T13:50:49;-0.40;99.90
19728;DHT22;10015;52.530;13.390;2024-01-10T13:53:14;-0.30;99.90
19728;DHT22;10015;52.530;13.390;2024-01-10T13:55:40;-0.30;99.90
19728;DHT22;10015;52.530;13.390;2024-01-10T13:58:06;-0.30;99.90
19728;DHT22;10015;52.530;13.390;2024-01-10T14:00:33;-0.40;99.90
19728;DHT22;10015;52.530;13.390;2024-01-10T14:02:59;-0.40;99.90
19728;DHT22;10015;52.530;13.390;2024-01-10T14:05:28;-0.30;99.90
19728;DHT22;10015;52.530;13.390;2024-01-10T14:07:55;-0.30;99.90
19728;DHT22;10015;52.530;13.390;2024-01-10T14:10:21;-0.30;99.90
19728;DHT22;10015;52.530;13.390;2024-01-10T14:12:47;-0.30;99.90
19728;DHT22;10015;52.530;13.390;2024-01-10T14:15:13;-0.20;99.90
19728;DHT22;10015;52.530;13.390;2024-01-10T14:17:40;-0.30;99.90
19728;DHT22;10015;52.530;13.390;2024-01-10T14:20:08;-0.40;99.90
19728;DHT22;10015;52.530;13.390;2024-01-10T14:22:36;-0.40;99.90
19728;DHT22;10015;52.530;13.390;2024-01-10T14:25:02;-0.30;99.90
19728;DHT22;10015;52.530;13.390;2024-01-10T14:27:29;-0.30;99.90
19728;DHT22;10015;52.530;13.390;2024-01-10T14:29:56;-0.30;99.90
19728;DHT22;10015;52.530;13.390;2024-01-10T14:32:21;-0.30;99.90
19728;DHT22;10015;52.530;13.390;2024-01-10T14:34:47;-0.40;99.90
19728;DHT22;10015;52.530;13.390;2024-01-10T14:37:13;-0.40;99.90
19728;DHT22;10015;52.530;13.390;2024-01-10T14:39:39;-0.40;99.90
19728;DHT22;10015;52.530;13.390;2024-01-10T14:42:08;-0.30;99.90
19728;DHT22;10015;52.530;13.390;2024-01-10T14:44:38;-0.30;99.90
19728;DHT22;10015;52.530;13.390;2024-01-10T14:47:04;-0.30;99.90
19728;DHT22;10015;52.530;13.390;2024-01-10T14:49:30;-0.30;99.90
19728;DHT22;10015;52.530;13.390;2024-01-10T14:51:57;-0.30;99.90
19728;DHT22;10015;52.530;13.390;2024-01-10T14:54:23;-0.30;99.90
19728;DHT22;10015;52.530;13.390;2024-01-10T14:56:49;-0.20;99.90
19728;DHT22;10015;52.530;13.390;2024-01-10T14:59:15;-0.30;99.90
19728;DHT22;10015;52.530;13.390;2024-01-10T15:01:46;-0.40;99.90
19728;DHT22;10015;52.530;13.390;2024-01-10T15:04:12;-0.40;99.90
19728;DHT22;10015;52.530;13.390;2024-01-10T15:06:45;-0.40;99.90
19728;DHT22;10015;52.530;13.390;2024-01-10T15:09:13;-0.40;99.90
19728;DHT22;10015;52.530;13.390;2024-01-10T15:11:41;-0.40;99.90
19728;DHT22;10015;52.530;13.390;2024-01-10T15:14:10;-0.40;99.90
19728;DHT22;10015;52.530;13.390;2024-01-10T15:16:36;-0.40;99.90
19728;DHT22;10015;52.530;13.390;2024-01-10T15:19:02;-0.50;99.90
19728;DHT22;10015;52.530;13.390;2024-01-10T15:21:28;-0.50;99.90
19728;DHT22;10015;52.530;13.390;2024-01-10T15:23:57;-0.40;99.90
19728;DHT22;10015;52.530;13.390;2024-01-10T15:26:23;-0.50;99.90